Edgar B Speer — WQZ9670 — position and weather

sailwx.info

Track history (hours):
 
Tides and Currents Weather Stations Pressure Air Temp Water Temp Dewpoint Dewpoint Depression Visibility Wind Speed Wind Dir Waves Ship Positions

Edgar B Speer

Owner: Great Lakes Fleet, Inc, DULUTH, MN. More information available from US FCC via Universal Licensing System and Coast Guard Vessel Documentation Center.

Last reported at 2016-Sep-27 10:29 UTC. Time now 2016-Sep-28 23:59 UTC.
Position N 47°01' W 091°40'.

Length 306 m; draft 8.4 m.

Type: Cargo ship. MMSI: 366971330.

Date/timePositionNaut miles runAvg speedWind from/ knotsBaromVisibWave heightAir tempDewpointWater temp
2016-Sep-27 10:29N 47°01' W 091°40'1 0.1
2016-Sep-27 00:33N 46°60' W 091°40'31510.1
2016-Sep-25 17:20N 46°15' W 084°06'20 9.7
2016-Sep-25 15:18N 45°57' W 083°54'1012.7
2016-Sep-25 14:33N 45°52' W 084°05'2613.1
2016-Sep-25 12:33N 45°49' W 084°42'1413.4
2016-Sep-25 11:33N 45°50' W 085°02'1010.1
2016-Sep-25 10:34N 45°43' W 085°12'1413.7
2016-Sep-25 09:33N 45°32' W 085°24'2713.7
2016-Sep-25 07:34N 45°10' W 085°47'  
2016-Sep-23 01:33N 45°48' W 085°48'1212.0
2016-Sep-23 00:34N 45°53' W 085°33'1211.9
2016-Sep-22 23:34N 45°53' W 085°16'3411.5
2016-Sep-22 20:34N 45°52' W 084°27'79 4.9
2016-Sep-22 04:20N 46°58' W 085°30'1212.2
2016-Sep-22 03:21N 47°03' W 085°46'21611.9
2016-Sep-21 09:10N 47°10' W 091°02'712.0
2016-Sep-21 08:33N 47°08' W 091°12'20 1.3
2016-Sep-20 17:32N 47°01' W 091°40'2 0.7
2016-Sep-20 14:33N 47°00' W 091°37'1312.5
2016-Sep-20 13:33N 47°03' W 091°19'3712.5
2016-Sep-20 10:33N 47°12' W 090°26'2612.6
2016-Sep-20 08:30N 47°17' W 089°49'241 9.7
2016-Sep-19 07:33N 46°18' W 084°07'9 7.9
2016-Sep-19 06:25N 46°09' W 084°03'22 7.6
2016-Sep-19 03:33N 45°51' W 084°19'1313.2
2016-Sep-19 02:33N 45°50' W 084°38'2211.2
2016-Sep-19 00:33N 45°45' W 085°09'6713.4
2016-Sep-18 19:32N 44°54' W 086°12'  
Track history (hours):
 
Tides and Currents Weather Stations Pressure Air Temp Water Temp Dewpoint Dewpoint Depression Visibility Wind Speed Wind Dir Waves Ship Positions

Edgar B Speer

Owner: Great Lakes Fleet, Inc, DULUTH, MN. More information available from US FCC via Universal Licensing System and Coast Guard Vessel Documentation Center.

Last reported at 2016-Sep-27 10:29 UTC. Time now 2016-Sep-28 23:59 UTC.
Position N 47°01' W 091°40'.

Length 306 m; draft 8.4 m.

Type: Cargo ship. MMSI: 366971330.

Date/timePositionNaut miles runAvg speedWind from/ knotsBaromVisibWave heightAir tempDewpointWater temp
2016-Sep-27 10:29N 47°01' W 091°40'1 0.1
2016-Sep-27 00:33N 46°60' W 091°40'31510.1
2016-Sep-25 17:20N 46°15' W 084°06'20 9.7
2016-Sep-25 15:18N 45°57' W 083°54'1012.7
2016-Sep-25 14:33N 45°52' W 084°05'2613.1
2016-Sep-25 12:33N 45°49' W 084°42'1413.4
2016-Sep-25 11:33N 45°50' W 085°02'1010.1
2016-Sep-25 10:34N 45°43' W 085°12'1413.7
2016-Sep-25 09:33N 45°32' W 085°24'2713.7
2016-Sep-25 07:34N 45°10' W 085°47'  
2016-Sep-23 01:33N 45°48' W 085°48'1212.0
2016-Sep-23 00:34N 45°53' W 085°33'1211.9
2016-Sep-22 23:34N 45°53' W 085°16'3411.5
2016-Sep-22 20:34N 45°52' W 084°27'79 4.9
2016-Sep-22 04:20N 46°58' W 085°30'1212.2
2016-Sep-22 03:21N 47°03' W 085°46'21611.9
2016-Sep-21 09:10N 47°10' W 091°02'712.0
2016-Sep-21 08:33N 47°08' W 091°12'20 1.3
2016-Sep-20 17:32N 47°01' W 091°40'2 0.7
2016-Sep-20 14:33N 47°00' W 091°37'1312.5
2016-Sep-20 13:33N 47°03' W 091°19'3712.5
2016-Sep-20 10:33N 47°12' W 090°26'2612.6
2016-Sep-20 08:30N 47°17' W 089°49'241 9.7
2016-Sep-19 07:33N 46°18' W 084°07'9 7.9
2016-Sep-19 06:25N 46°09' W 084°03'22 7.6
2016-Sep-19 03:33N 45°51' W 084°19'1313.2
2016-Sep-19 02:33N 45°50' W 084°38'2211.2
2016-Sep-19 00:33N 45°45' W 085°09'6713.4
2016-Sep-18 19:32N 44°54' W 086°12'  

Dump ship's entire track history